createdAt,value
2023-01-25T00:00:01.768Z,287.35
2023-01-25T00:02:33.449Z,348.52
2023-01-25T04:05:11.643Z,401.35
2023-01-25T04:07:42.112Z,413.00
2023-01-25T04:10:12.935Z,404.58
2023-01-25T04:12:47.128Z,392.02
2023-01-25T04:15:17.448Z,387.73
2023-01-25T04:17:47.475Z,410.33
2023-01-25T04:20:22.775Z,386.73
2023-01-25T04:22:52.625Z,403.98
2023-01-25T04:25:25.983Z,374.83
2023-01-25T04:27:56.301Z,365.48
2023-01-25T04:30:26.671Z,362.50
2023-01-25T04:32:57.474Z,336.38
2023-01-25T04:35:31.969Z,328.75
2023-01-25T04:38:04.035Z,434.88
2023-01-25T04:40:41.268Z,441.88
2023-01-25T04:43:12.643Z,428.25
2023-01-25T04:45:43.474Z,421.25
2023-01-25T04:48:21.259Z,447.33
2023-01-25T04:50:57.363Z,421.83
2023-01-25T04:53:27.521Z,421.33
2023-01-25T04:56:01.285Z,434.55
2023-01-25T04:58:36.007Z,438.63
2023-01-25T05:01:06.700Z,404.60
2023-01-25T05:03:36.616Z,370.02
2023-01-25T05:06:09.953Z,283.20
2023-01-25T05:08:39.570Z,262.80
2023-01-25T05:11:09.234Z,298.38
2023-01-25T05:13:50.284Z,286.20
2023-01-25T05:16:26.007Z,269.92
2023-01-25T05:18:58.886Z,294.30
2023-01-25T05:22:00.624Z,271.63
2023-01-25T05:24:42.845Z,299.38
2023-01-25T05:27:16.446Z,291.10
2023-01-25T05:29:59.563Z,302.88
2023-01-25T05:32:47.969Z,300.85
2023-01-25T05:35:19.211Z,456.95
2023-01-25T05:37:51.362Z,449.77
2023-01-25T05:40:26.799Z,414.10
2023-01-25T05:43:02.365Z,479.40
2023-01-25T05:45:33.759Z,464.45
2023-01-25T05:48:05.399Z,443.70
2023-01-25T05:50:35.451Z,435.02
2023-01-25T05:53:12.998Z,473.63
2023-01-25T05:55:42.877Z,497.10
2023-01-25T05:58:17.000Z,495.30
2023-01-25T06:00:46.777Z,516.80
2023-01-25T06:03:26.939Z,530.88
2023-01-25T06:06:04.040Z,542.95
2023-01-25T06:08:35.257Z,610.13
2023-01-25T06:11:13.120Z,599.20
2023-01-25T06:13:46.794Z,596.47
2023-01-25T06:16:18.377Z,609.72
2023-01-25T06:19:09.866Z,565.55
2023-01-25T06:21:49.000Z,503.95
2023-01-25T06:24:22.905Z,488.48
2023-01-25T06:26:52.895Z,479.55
2023-01-25T06:29:25.507Z,460.02
2023-01-25T06:31:56.811Z,434.50
2023-01-25T06:34:26.820Z,425.90
2023-01-25T06:36:56.602Z,447.73
2023-01-25T06:39:26.668Z,424.67
2023-01-25T06:41:57.280Z,407.13
2023-01-25T06:44:28.417Z,401.83
2023-01-25T06:46:59.157Z,409.58
2023-01-25T06:49:29.111Z,386.70
2023-01-25T06:52:02.510Z,380.08
2023-01-25T06:54:32.545Z,374.35
2023-01-25T06:57:02.132Z,338.98
2023-01-25T06:59:31.889Z,377.48
2023-01-25T07:02:01.608Z,375.52
2023-01-25T07:04:31.378Z,352.00
2023-01-25T07:07:01.113Z,409.17
2023-01-25T07:09:30.959Z,403.92
2023-01-25T07:12:00.377Z,424.88
2023-01-25T07:14:33.508Z,403.50
2023-01-25T07:17:04.031Z,379.80
2023-01-25T07:19:34.138Z,392.25
2023-01-25T07:22:04.319Z,408.33
2023-01-25T07:24:34.059Z,395.02
2023-01-25T07:27:03.589Z,420.33
2023-01-25T07:29:33.378Z,428.48
2023-01-25T07:36:07.636Z,396.92
2023-01-25T07:38:37.549Z,421.05
2023-01-25T07:41:10.119Z,429.38
2023-01-25T07:43:39.767Z,422.00
2023-01-25T07:46:14.025Z,401.73
2023-01-25T07:48:48.416Z,400.40
2023-01-25T07:51:28.072Z,393.60
2023-01-25T07:54:05.884Z,427.92
2023-01-25T07:56:38.771Z,405.77
2023-01-25T07:59:20.153Z,402.70
2023-01-25T08:01:52.146Z,386.55
2023-01-25T08:04:23.829Z,391.10
2023-01-25T08:06:52.911Z,370.80
2023-01-25T08:09:24.717Z,349.60
2023-01-25T08:11:54.617Z,323.05
2023-01-25T08:14:23.550Z,324.98
2023-01-25T08:16:52.757Z,311.08
2023-01-25T08:19:22.942Z,313.38
2023-01-25T08:21:52.413Z,286.73
2023-01-25T08:24:22.489Z,292.58
2023-01-25T08:26:52.525Z,303.10
2023-01-25T08:29:21.586Z,320.40
2023-01-25T08:31:50.926Z,293.55
2023-01-25T08:34:19.813Z,315.55
2023-01-25T08:36:49.105Z,279.90
2023-01-25T08:39:19.157Z,281.58
2023-01-25T08:41:48.288Z,270.05
2023-01-25T08:44:17.513Z,256.75
2023-01-25T08:46:47.257Z,252.55
2023-01-25T08:49:16.393Z,242.50
2023-01-25T08:51:45.765Z,249.85
2023-01-25T08:54:14.839Z,237.23
2023-01-25T08:56:44.346Z,239.85
2023-01-25T08:59:14.833Z,259.38
2023-01-25T09:01:44.038Z,230.63
2023-01-25T09:04:12.952Z,224.18
2023-01-25T09:06:42.519Z,223.65
2023-01-25T09:09:12.528Z,245.30
2023-01-25T09:11:41.720Z,227.90
2023-01-25T09:14:10.610Z,225.88
2023-01-25T09:16:39.839Z,236.35
2023-01-25T09:19:09.091Z,223.35
2023-01-25T09:21:39.782Z,210.45
2023-01-25T09:24:09.404Z,219.45
2023-01-25T09:26:41.684Z,216.85
2023-01-25T09:29:13.608Z,218.25
2023-01-25T09:31:44.676Z,218.15
2023-01-25T09:34:17.515Z,212.20
2023-01-25T09:36:46.705Z,201.85
2023-01-25T09:39:15.673Z,218.55
2023-01-25T09:42:29.243Z,201.60
2023-01-25T09:45:12.471Z,210.27
2023-01-25T09:48:04.119Z,231.82
2023-01-25T09:50:54.513Z,214.90
2023-01-25T09:53:27.027Z,217.38
2023-01-25T09:56:00.515Z,199.00
2023-01-25T09:58:42.278Z,186.27
2023-01-25T10:01:39.093Z,204.98
2023-01-25T10:04:27.076Z,201.98
2023-01-25T10:07:01.826Z,210.82
2023-01-25T10:09:44.067Z,198.27
2023-01-25T10:12:18.085Z,188.55
2023-01-25T10:14:48.187Z,182.25
2023-01-25T10:17:20.045Z,185.18
2023-01-25T10:20:15.687Z,185.55
2023-01-25T10:22:52.662Z,192.30
2023-01-25T10:25:45.281Z,204.90
2023-01-25T10:28:33.984Z,186.93
2023-01-25T10:31:16.045Z,217.95
2023-01-25T10:33:47.053Z,200.35
2023-01-25T10:36:24.593Z,187.05
2023-01-25T10:39:00.261Z,213.52
2023-01-25T10:41:47.329Z,181.32
2023-01-25T10:44:25.054Z,169.32
2023-01-25T10:47:05.587Z,202.50
2023-01-25T10:49:53.050Z,206.95
2023-01-25T10:52:24.347Z,200.65
2023-01-25T10:55:24.121Z,188.10
2023-01-25T10:57:59.007Z,193.80
2023-01-25T11:00:40.329Z,184.90
2023-01-25T11:03:38.504Z,178.77
2023-01-25T11:06:09.640Z,178.05
2023-01-25T11:08:41.272Z,160.50
2023-01-25T11:11:37.221Z,156.55
2023-01-25T11:14:18.918Z,171.93
2023-01-25T11:16:49.497Z,165.82
2023-01-25T11:19:40.759Z,181.52
2023-01-25T11:22:29.608Z,170.38
2023-01-25T11:24:58.927Z,176.75
2023-01-25T11:27:29.000Z,171.93
2023-01-25T11:30:21.073Z,171.30
2023-01-25T11:32:53.190Z,160.73
2023-01-25T11:35:33.168Z,155.52
2023-01-25T11:38:23.907Z,180.10
2023-01-25T11:40:56.854Z,181.98
2023-01-25T11:43:28.984Z,203.02
2023-01-25T11:46:18.136Z,199.25
2023-01-25T11:49:09.984Z,203.63
2023-01-25T11:52:03.265Z,205.38
2023-01-25T11:54:34.891Z,198.45
2023-01-25T11:57:34.810Z,204.85
2023-01-25T12:00:11.009Z,205.38
2023-01-25T12:03:05.112Z,211.85
2023-01-25T12:06:01.784Z,228.27
2023-01-25T12:08:51.020Z,212.95
2023-01-25T12:11:43.961Z,226.60
2023-01-25T12:14:46.697Z,213.80
2023-01-25T12:17:23.949Z,223.02
2023-01-25T12:20:08.476Z,213.88
2023-01-25T12:22:56.145Z,221.77
2023-01-25T12:25:57.642Z,219.98
2023-01-25T12:28:37.740Z,202.35
2023-01-25T12:31:14.904Z,203.98
2023-01-25T12:33:47.583Z,218.93
2023-01-25T12:38:58.301Z,184.73
2023-01-25T12:41:55.397Z,194.95
2023-01-25T12:44:32.606Z,183.20
2023-01-25T12:47:14.932Z,191.70
2023-01-25T12:53:49.808Z,202.80
2023-01-25T12:56:33.371Z,202.10
2023-01-25T12:59:19.233Z,202.20
2023-01-25T13:02:14.642Z,215.68
2023-01-25T13:05:02.153Z,198.43
2023-01-25T13:07:45.367Z,191.93
2023-01-25T13:10:20.631Z,199.65
2023-01-25T13:13:05.112Z,204.93
2023-01-25T13:15:48.367Z,203.90
2023-01-25T13:18:30.036Z,206.55
2023-01-25T13:21:02.157Z,208.25
2023-01-25T13:23:44.972Z,215.98
2023-01-25T13:28:55.115Z,210.18
2023-01-25T13:31:51.534Z,261.40
2023-01-25T13:34:37.356Z,251.07
2023-01-25T13:37:24.344Z,234.60
2023-01-25T13:39:55.790Z,282.23
2023-01-25T13:42:31.134Z,266.67
2023-01-25T13:45:15.325Z,283.45
2023-01-25T13:48:00.136Z,278.92
2023-01-25T13:50:35.214Z,281.38
2023-01-25T13:53:19.209Z,261.67
2023-01-25T13:55:57.651Z,270.77
2023-01-25T13:58:31.952Z,272.60
2023-01-25T14:01:13.168Z,263.23
2023-01-25T14:03:48.770Z,270.42
2023-01-25T14:06:22.155Z,272.95
2023-01-25T14:08:54.032Z,264.77
2023-01-25T14:11:35.788Z,256.35
2023-01-25T14:14:21.998Z,268.88
2023-01-25T14:17:04.161Z,266.15
2023-01-25T14:19:34.695Z,265.95
2023-01-25T14:22:19.490Z,257.90
2023-01-25T14:25:09.645Z,258.27
2023-01-25T14:27:52.620Z,269.80
2023-01-25T14:30:35.887Z,276.20
2023-01-25T14:33:22.974Z,270.75
2023-01-25T14:35:58.498Z,279.90
2023-01-25T14:38:41.819Z,258.95
2023-01-25T14:41:21.565Z,281.92
2023-01-25T14:43:54.177Z,268.70
2023-01-25T14:49:17.004Z,256.92
2023-01-25T14:51:50.193Z,249.82
2023-01-25T14:54:22.881Z,278.77
2023-01-25T14:56:56.457Z,249.23
2023-01-25T14:59:30.198Z,246.98
2023-01-25T15:02:33.172Z,237.90
2023-01-25T15:05:15.578Z,246.52
2023-01-25T15:07:51.793Z,254.50
2023-01-25T15:10:35.451Z,248.75
2023-01-25T15:13:15.466Z,250.45
2023-01-25T15:15:59.323Z,250.32
2023-01-25T15:18:58.813Z,246.55
2023-01-25T15:21:33.059Z,256.50
2023-01-25T15:24:07.561Z,265.65
2023-01-25T15:26:37.997Z,282.42
2023-01-25T15:29:16.946Z,278.77
2023-01-25T15:31:46.617Z,284.77
2023-01-25T15:34:26.225Z,292.65
2023-01-25T15:36:55.920Z,266.00
2023-01-25T15:39:25.756Z,275.38
2023-01-25T15:41:55.524Z,265.77
2023-01-25T15:44:25.181Z,279.17
2023-01-25T15:46:54.923Z,307.42
2023-01-25T15:49:30.428Z,325.08
2023-01-25T15:52:00.692Z,338.90
2023-01-25T15:54:30.123Z,330.17
2023-01-25T15:57:01.493Z,372.95
2023-01-25T15:59:31.542Z,354.65
2023-01-25T16:02:01.169Z,342.35
2023-01-25T16:04:30.892Z,360.05
2023-01-25T16:07:02.193Z,340.15
2023-01-25T16:09:34.375Z,356.48
2023-01-25T16:12:04.567Z,344.23
2023-01-25T16:14:34.586Z,344.02
2023-01-25T16:17:06.916Z,341.90
2023-01-25T16:19:39.061Z,329.63
2023-01-25T16:22:10.407Z,310.88
2023-01-25T16:24:40.931Z,319.48
2023-01-25T16:27:26.952Z,271.08
2023-01-25T16:30:00.814Z,306.02
2023-01-25T16:32:34.389Z,291.13
2023-01-25T16:35:08.016Z,286.50
2023-01-25T16:37:43.933Z,299.33
2023-01-25T16:40:25.767Z,299.40
2023-01-25T16:42:56.308Z,280.55
2023-01-25T16:45:28.365Z,276.48
2023-01-25T16:47:58.875Z,271.13
2023-01-25T16:50:30.557Z,267.98
2023-01-25T16:53:01.683Z,264.83
2023-01-25T16:55:32.414Z,299.95
2023-01-25T16:58:08.979Z,269.25
2023-01-25T17:00:40.062Z,285.52
2023-01-25T17:03:10.755Z,255.68
2023-01-25T17:05:42.793Z,252.63
2023-01-25T17:08:13.624Z,266.58
2023-01-25T17:10:47.249Z,260.02
2023-01-25T17:13:18.696Z,268.25
2023-01-25T17:15:55.014Z,271.15
2023-01-25T17:18:28.893Z,266.88
2023-01-25T17:21:01.186Z,264.85
2023-01-25T17:23:33.637Z,284.25
2023-01-25T17:26:10.106Z,299.30
2023-01-25T17:28:40.964Z,333.02
2023-01-25T17:31:31.618Z,341.40
2023-01-25T17:34:08.426Z,345.08
2023-01-25T17:36:38.526Z,332.17
2023-01-25T17:39:09.112Z,353.83
2023-01-25T17:41:38.950Z,374.92
2023-01-25T17:44:08.980Z,384.65
2023-01-25T17:46:40.120Z,376.02
2023-01-25T17:49:13.544Z,395.20
2023-01-25T17:51:43.913Z,361.10
2023-01-25T17:54:16.834Z,399.05
2023-01-25T17:56:46.864Z,389.70
2023-01-25T17:59:16.343Z,391.48
2023-01-25T18:01:46.225Z,417.77
2023-01-25T18:04:18.729Z,425.95
2023-01-25T18:06:48.520Z,433.55
2023-01-25T18:09:18.078Z,418.67
2023-01-25T18:11:49.316Z,422.55
2023-01-25T18:14:19.773Z,424.73
2023-01-25T18:16:50.348Z,417.27
2023-01-25T18:19:20.193Z,442.10
2023-01-25T18:21:53.132Z,462.67
2023-01-25T18:24:35.701Z,458.77
2023-01-25T18:27:26.500Z,470.80
2023-01-25T18:30:28.278Z,486.90
2023-01-25T18:32:58.347Z,459.40
2023-01-25T18:35:30.424Z,484.35
2023-01-25T18:38:00.981Z,445.73
2023-01-25T18:40:31.639Z,469.90
2023-01-25T18:43:02.694Z,450.58
2023-01-25T18:45:32.417Z,460.50
2023-01-25T18:48:02.748Z,465.35
2023-01-25T18:50:32.451Z,460.23
2023-01-25T18:53:01.976Z,459.15
2023-01-25T18:55:31.606Z,490.45
2023-01-25T18:58:05.063Z,477.85
2023-01-25T19:00:36.167Z,456.92
2023-01-25T19:03:06.053Z,474.27
2023-01-25T19:05:37.741Z,500.25
2023-01-25T19:08:07.858Z,494.08
2023-01-25T19:10:37.242Z,505.70
2023-01-25T19:13:07.087Z,545.63
2023-01-25T19:15:36.735Z,522.80
2023-01-25T19:18:06.461Z,529.20
2023-01-25T19:20:35.997Z,530.17
2023-01-25T19:23:06.016Z,543.92
2023-01-25T19:25:35.991Z,507.58
2023-01-25T19:28:05.471Z,490.10
2023-01-25T19:30:35.169Z,509.55
2023-01-25T19:33:04.666Z,501.38
2023-01-25T19:35:34.408Z,536.85
2023-01-25T19:38:03.803Z,524.53
2023-01-25T19:40:33.528Z,515.72
2023-01-25T19:43:03.157Z,510.15
2023-01-25T19:45:32.899Z,553.70
2023-01-25T19:48:03.911Z,521.42
2023-01-25T19:50:33.878Z,518.58
2023-01-25T19:53:04.993Z,626.05
2023-01-25T19:55:34.851Z,788.28
2023-01-25T19:58:04.209Z,833.17
2023-01-25T20:00:33.962Z,854.95
2023-01-25T20:03:15.614Z,777.20
2023-01-25T20:05:45.712Z,780.20
2023-01-25T20:08:15.221Z,790.10
2023-01-25T20:10:44.917Z,786.40
2023-01-25T20:13:14.506Z,812.42
2023-01-25T20:15:50.439Z,843.63
2023-01-25T20:18:20.790Z,896.33
2023-01-25T20:21:08.287Z,874.92
2023-01-25T20:23:40.543Z,899.80
2023-01-25T20:26:14.832Z,951.78
2023-01-25T20:28:46.934Z,990.88
2023-01-25T20:31:26.860Z,1041.85
2023-01-25T20:34:02.524Z,1003.28
2023-01-25T20:36:33.620Z,950.03
2023-01-25T20:39:03.384Z,920.80
2023-01-25T20:41:33.331Z,784.75
2023-01-25T20:44:11.248Z,640.08
2023-01-25T20:46:43.179Z,551.97
2023-01-25T20:49:17.112Z,523.03
2023-01-25T20:51:47.538Z,536.13
2023-01-25T20:54:19.365Z,505.42
2023-01-25T20:56:49.134Z,519.47
2023-01-25T20:59:20.407Z,549.70
2023-01-25T21:01:51.344Z,504.42
2023-01-25T21:04:21.466Z,509.30
2023-01-25T21:06:51.113Z,478.48
2023-01-25T21:09:20.868Z,501.45
2023-01-25T21:11:50.436Z,486.00
2023-01-25T21:14:21.249Z,502.45
2023-01-25T21:16:51.120Z,498.52
2023-01-25T21:19:20.606Z,490.50
2023-01-25T21:21:50.420Z,484.83
2023-01-25T21:24:20.264Z,474.20
2023-01-25T21:26:50.069Z,469.83
2023-01-25T21:29:21.637Z,472.10
2023-01-25T21:31:54.285Z,470.50
2023-01-25T21:36:53.268Z,458.38
2023-01-25T21:39:23.153Z,452.10
2023-01-25T21:41:52.996Z,487.17
2023-01-25T21:44:40.728Z,499.23
2023-01-25T21:47:29.412Z,502.70
2023-01-25T21:50:18.061Z,515.92
2023-01-25T21:52:48.230Z,511.55
2023-01-25T21:55:17.907Z,506.48
2023-01-25T21:57:48.333Z,499.90
2023-01-25T22:00:18.647Z,525.47
2023-01-25T22:02:48.460Z,551.08
2023-01-25T22:05:17.955Z,530.25
2023-01-25T22:07:47.406Z,514.38
2023-01-25T22:10:17.294Z,552.55
2023-01-25T22:12:46.995Z,525.15
2023-01-25T22:15:16.841Z,573.60
2023-01-25T22:17:46.401Z,591.30
2023-01-25T22:20:16.387Z,613.63
2023-01-25T22:22:45.863Z,582.10
2023-01-25T22:25:15.571Z,604.50
2023-01-25T22:27:56.777Z,609.78
2023-01-25T22:30:26.689Z,594.75
2023-01-25T22:32:56.220Z,674.15
2023-01-25T22:35:25.998Z,710.10
2023-01-25T22:37:55.721Z,708.20
2023-01-25T22:40:25.190Z,605.28
2023-01-25T22:42:54.617Z,618.05
2023-01-25T22:45:24.204Z,647.30
2023-01-25T22:47:53.813Z,667.70
2023-01-25T22:50:23.272Z,657.17
2023-01-25T22:52:53.142Z,715.38
2023-01-25T22:55:22.645Z,734.25
2023-01-25T22:57:52.461Z,686.35
2023-01-25T23:00:22.421Z,690.67
2023-01-25T23:02:52.075Z,663.13
2023-01-25T23:05:21.624Z,640.25
2023-01-25T23:07:51.506Z,623.97
2023-01-25T23:10:21.091Z,616.00
2023-01-25T23:12:50.762Z,631.22
2023-01-25T23:15:20.629Z,639.30
2023-01-25T23:18:08.429Z,626.60
2023-01-25T23:20:38.387Z,588.30
2023-01-25T23:23:07.944Z,589.72
2023-01-25T23:25:40.830Z,592.35
2023-01-25T23:28:10.544Z,547.15
2023-01-25T23:30:40.081Z,523.50
2023-01-25T23:33:09.895Z,525.33
2023-01-25T23:35:39.383Z,525.40
2023-01-25T23:38:16.209Z,464.60
2023-01-25T23:40:46.831Z,465.05
2023-01-25T23:43:16.756Z,457.05
2023-01-25T23:45:46.259Z,473.33
2023-01-25T23:48:16.103Z,500.92
2023-01-25T23:50:45.858Z,485.25
2023-01-25T23:53:15.305Z,482.95
2023-01-25T23:55:54.606Z,487.70
2023-01-25T23:58:24.873Z,492.80
